Jedburgh, United Kingdom
Current Conditions -  °F | °C
As of 8:50 AM on Monday 24 Nov 2014 (Local Time) from EGQM Reporting Station
Broken Clouds Broken Clouds  
Wind Chill: 37°   Ceiling: 18000
Heat Index: 45°   Visibility: 6mi
Dew Point: 39°   Wind: 17mph
Humidity: 81%   Direction: 270°W
Pressure: 30.18"   Gusts: NA
Location:  55.48°N, 2.55°W
Report Text: EGQM 240850Z AUTO 27015KT 9999 BKN180/// 07/04 Q1022
Loading
Personal Weather Stations






























Interactive Weather Map New forecast layout! Learn more

10-Day Weather Forecast

Advertisements
Track Severe Weather on mobile